createdAt,value
2019-05-11T00:00:11.815Z,81.70
2019-05-11T00:02:51.779Z,81.40
2019-05-11T00:05:31.821Z,81.60
2019-05-11T00:08:11.998Z,81.20
2019-05-11T00:10:51.793Z,80.80
2019-05-11T00:13:31.891Z,81.80
2019-05-11T00:16:12.093Z,80.20
2019-05-11T00:18:52.340Z,80.80
2019-05-11T00:21:32.455Z,81.00
2019-05-11T00:24:00.065Z,80.60
2019-05-11T00:26:47.083Z,81.40
2019-05-11T00:29:27.052Z,81.50
2019-05-11T00:32:06.826Z,81.50
2019-05-11T00:34:46.908Z,81.50
2019-05-11T00:37:26.957Z,81.50
2019-05-11T00:40:14.542Z,81.80
2019-05-11T00:42:49.177Z,81.70
2019-05-11T00:45:30.253Z,81.00
2019-05-11T00:48:10.418Z,80.80
2019-05-11T00:50:50.549Z,81.30
2019-05-11T00:53:30.570Z,81.30
2019-05-11T00:56:10.653Z,80.70
2019-05-11T00:58:51.137Z,81.10
2019-05-11T01:01:30.927Z,81.10
2019-05-11T01:04:12.638Z,81.60
2019-05-11T01:06:52.221Z,82.10
2019-05-11T01:09:32.213Z,82.40
2019-05-11T01:12:12.378Z,82.80
2019-05-11T01:14:52.482Z,83.10
2019-05-11T01:17:32.507Z,83.20
2019-05-11T01:20:15.057Z,83.50
2019-05-11T01:22:56.013Z,83.70
2019-05-11T01:25:37.332Z,83.30
2019-05-11T01:28:17.121Z,82.60
2019-05-11T01:30:57.439Z,82.10
2019-05-11T01:33:37.118Z,81.50
2019-05-11T01:36:17.458Z,80.90
2019-05-11T01:38:57.885Z,81.30
2019-05-11T01:41:37.580Z,81.30
2019-05-11T01:44:17.958Z,81.10
2019-05-11T01:46:57.917Z,81.10
2019-05-11T01:49:38.182Z,80.60
2019-05-11T01:52:18.069Z,80.70
2019-05-11T01:54:58.189Z,80.80
2019-05-11T01:57:38.139Z,80.80
2019-05-11T02:00:18.078Z,80.20
2019-05-11T02:02:58.459Z,80.00
2019-05-11T02:05:45.787Z,79.90
2019-05-11T02:08:32.938Z,79.70
2019-05-11T02:11:20.013Z,79.40
2019-05-11T02:14:00.422Z,79.40
2019-05-11T02:16:40.649Z,79.80
2019-05-11T02:19:20.843Z,79.80
2019-05-11T02:22:00.926Z,80.10
2019-05-11T02:24:40.984Z,80.00
2019-05-11T02:27:21.163Z,80.00
2019-05-11T02:30:01.080Z,80.00
2019-05-11T02:32:41.030Z,79.90
2019-05-11T02:35:21.252Z,79.60
2019-05-11T02:38:01.194Z,79.20
2019-05-11T02:40:41.272Z,79.40
2019-05-11T02:43:08.991Z,80.10
2019-05-11T02:45:38.832Z,79.80
2019-05-11T02:48:06.565Z,79.10
2019-05-11T02:50:35.678Z,79.00
2019-05-11T02:53:04.281Z,78.90
2019-05-11T02:55:32.849Z,78.70
2019-05-11T02:58:00.515Z,78.60
2019-05-11T03:00:39.465Z,78.60
2019-05-11T03:03:19.714Z,78.80
2019-05-11T03:05:59.871Z,78.80
2019-05-11T03:08:39.803Z,78.70
2019-05-11T03:11:19.987Z,78.90
2019-05-11T03:14:00.177Z,78.10
2019-05-11T03:16:27.898Z,79.80
2019-05-11T03:19:14.920Z,81.30
2019-05-11T03:22:01.940Z,82.20
2019-05-11T03:24:42.429Z,84.00
2019-05-11T03:27:22.286Z,85.80
2019-05-11T03:30:03.229Z,86.50
2019-05-11T03:32:42.825Z,87.10
2019-05-11T03:35:23.028Z,87.40
2019-05-11T03:38:03.503Z,87.90
2019-05-11T03:40:43.897Z,88.60
2019-05-11T03:43:24.078Z,89.10
2019-05-11T03:46:04.239Z,88.80
2019-05-11T03:48:44.348Z,89.50
2019-05-11T03:51:24.423Z,90.00
2019-05-11T03:54:04.625Z,89.40
2019-05-11T03:56:44.896Z,90.00
2019-05-11T03:59:25.004Z,90.20
2019-05-11T04:02:05.071Z,90.10
2019-05-11T04:04:45.136Z,90.20
2019-05-11T04:07:25.315Z,90.30
2019-05-11T04:10:05.387Z,90.60
2019-05-11T04:12:45.419Z,90.80
2019-05-11T04:15:25.525Z,90.70
2019-05-11T04:18:05.662Z,90.50
2019-05-11T04:20:45.989Z,90.40
2019-05-11T04:23:26.760Z,90.50
2019-05-11T04:26:07.059Z,90.80
2019-05-11T04:28:47.215Z,91.00
2019-05-11T04:31:27.819Z,91.00
2019-05-11T04:34:07.767Z,91.00
2019-05-11T04:36:47.955Z,91.20
2019-05-11T04:39:27.898Z,91.50
2019-05-11T04:42:08.095Z,91.80
2019-05-11T04:44:52.228Z,92.00
2019-05-11T04:47:30.806Z,92.20
2019-05-11T04:50:11.646Z,92.20
2019-05-11T04:52:51.433Z,92.30
2019-05-11T04:55:31.666Z,92.40
2019-05-11T04:58:11.971Z,92.30
2019-05-11T05:00:51.948Z,92.20
2019-05-11T05:03:40.684Z,92.40
2019-05-11T05:06:24.821Z,92.30
2019-05-11T05:09:03.728Z,92.30
2019-05-11T05:11:41.370Z,92.50
2019-05-11T05:14:21.422Z,92.70
2019-05-11T05:17:01.687Z,92.80
2019-05-11T05:19:42.035Z,92.90
2019-05-11T05:22:22.234Z,92.80
2019-05-11T05:25:03.036Z,93.00
2019-05-11T05:27:43.464Z,93.20
2019-05-11T05:33:25.436Z,92.20
2019-05-11T05:36:05.499Z,91.90
2019-05-11T05:38:45.296Z,92.10
2019-05-11T05:41:25.417Z,91.90
2019-05-11T05:44:05.546Z,91.80
2019-05-11T05:46:45.587Z,91.80
2019-05-11T05:49:25.584Z,91.80
2019-05-11T05:52:05.863Z,91.90
2019-05-11T05:57:59.385Z,92.00
2019-05-11T06:00:39.481Z,91.60
2019-05-11T06:03:19.590Z,91.20
2019-05-11T06:05:59.757Z,90.90
2019-05-11T06:08:43.045Z,91.20
2019-05-11T06:11:21.940Z,91.10
2019-05-11T06:14:01.884Z,91.30
2019-05-11T06:16:42.166Z,91.30
2019-05-11T06:19:22.336Z,91.40
2019-05-11T06:22:02.534Z,92.20
2019-05-11T06:24:42.754Z,91.90
2019-05-11T06:27:22.796Z,92.00
2019-05-11T06:30:03.066Z,92.20
2019-05-11T06:32:43.225Z,92.30
2019-05-11T06:35:11.025Z,92.60
2019-05-11T06:37:58.162Z,92.80
2019-05-11T06:40:46.140Z,92.80
2019-05-11T06:43:13.725Z,92.90
2019-05-11T06:45:41.928Z,92.90
2019-05-11T06:48:28.933Z,92.70
2019-05-11T06:51:08.576Z,92.70
2019-05-11T06:53:36.204Z,92.80
2019-05-11T06:56:37.341Z,92.90
2019-05-11T06:59:12.147Z,92.50
2019-05-11T07:01:54.415Z,92.50
2019-05-11T07:04:34.142Z,92.50
2019-05-11T07:07:14.313Z,92.40
2019-05-11T07:09:54.402Z,92.30
2019-05-11T07:12:34.335Z,92.00
2019-05-11T07:15:14.202Z,91.40
2019-05-11T07:17:54.541Z,91.10
2019-05-11T07:20:49.376Z,91.00
2019-05-11T07:23:14.519Z,90.60
2019-05-11T07:25:52.914Z,89.90
2019-05-11T07:28:40.162Z,90.00
2019-05-11T07:31:20.393Z,89.90
2019-05-11T07:34:00.307Z,89.60
2019-05-11T07:36:40.374Z,89.80
2019-05-11T07:39:20.350Z,89.60
2019-05-11T07:42:00.558Z,90.00
2019-05-11T07:44:41.886Z,82.20
2019-05-11T07:47:20.111Z,85.50
2019-05-11T07:50:00.585Z,86.30
2019-05-11T07:52:40.809Z,87.20
2019-05-11T07:55:20.771Z,87.20
2019-05-11T07:58:00.748Z,87.50
2019-05-11T08:00:40.737Z,88.30
2019-05-11T08:03:20.720Z,88.00
2019-05-11T08:06:02.857Z,88.40
2019-05-11T08:08:43.163Z,89.30
2019-05-11T08:11:23.268Z,89.90
2019-05-11T08:14:04.139Z,88.70
2019-05-11T08:16:44.603Z,89.00
2019-05-11T08:19:24.586Z,89.10
2019-05-11T08:22:04.694Z,87.50
2019-05-11T08:24:44.736Z,86.80
2019-05-11T08:27:24.750Z,81.40
2019-05-11T08:30:04.913Z,79.90
2019-05-11T08:32:44.886Z,79.30
2019-05-11T08:35:30.380Z,80.30
2019-05-11T08:38:08.830Z,79.90
2019-05-11T08:40:49.356Z,80.10
2019-05-11T08:43:29.622Z,80.00
2019-05-11T08:46:09.552Z,80.00
2019-05-11T08:48:50.282Z,79.80
2019-05-11T08:51:30.098Z,80.90
2019-05-11T08:54:10.004Z,81.50
2019-05-11T08:56:50.157Z,80.80
2019-05-11T08:59:30.483Z,81.00
2019-05-11T09:02:10.436Z,81.70
2019-05-11T09:04:50.847Z,80.70
2019-05-11T09:07:30.749Z,81.00
2019-05-11T09:10:11.299Z,81.10
2019-05-11T09:12:51.456Z,81.70
2019-05-11T09:15:36.789Z,82.50
2019-05-11T09:18:01.111Z,83.60
2019-05-11T09:20:48.691Z,84.70
2019-05-11T09:23:37.043Z,82.40
2019-05-11T09:26:11.765Z,78.10
2019-05-11T09:31:50.947Z,81.70
2019-05-11T09:34:32.074Z,81.10
2019-05-11T09:37:12.159Z,83.20
2019-05-11T09:39:52.241Z,80.70
2019-05-11T09:42:32.511Z,81.50
2019-05-11T09:45:12.589Z,79.50
2019-05-11T09:47:52.611Z,78.20
2019-05-11T09:50:32.807Z,77.30
2019-05-11T09:53:13.241Z,78.10
2019-05-11T09:55:53.158Z,75.70
2019-05-11T09:58:33.313Z,75.30
2019-05-11T10:01:13.474Z,75.00
2019-05-11T10:03:53.706Z,73.30
2019-05-11T10:06:34.531Z,72.10
2019-05-11T10:09:15.014Z,74.00
2019-05-11T10:11:58.508Z,73.40
2019-05-11T10:14:38.017Z,73.40
2019-05-11T10:17:18.673Z,71.80
2019-05-11T10:19:58.724Z,72.70
2019-05-11T10:22:38.720Z,73.00
2019-05-11T10:25:18.943Z,74.40
2019-05-11T10:27:59.100Z,72.50
2019-05-11T10:39:51.252Z,69.40
2019-05-11T10:42:31.563Z,70.90
2019-05-11T10:45:12.435Z,69.30
2019-05-11T10:47:55.768Z,70.00
2019-05-11T10:50:34.918Z,70.80
2019-05-11T10:53:02.517Z,69.20
2019-05-11T10:55:49.529Z,67.40
2019-05-11T10:58:37.890Z,67.60
2019-05-11T11:01:18.725Z,67.40
2019-05-11T11:03:58.844Z,67.80
2019-05-11T11:06:38.923Z,69.30
2019-05-11T11:09:18.887Z,66.60
2019-05-11T11:11:58.834Z,65.00
2019-05-11T11:14:38.901Z,65.80
2019-05-11T11:17:19.250Z,66.70
2019-05-11T11:22:58.538Z,71.30
2019-05-11T11:25:39.077Z,74.00
2019-05-11T11:28:19.126Z,75.80
2019-05-11T11:30:59.898Z,77.70
2019-05-11T11:33:40.142Z,78.30
2019-05-11T11:36:20.169Z,78.80
2019-05-11T11:39:00.362Z,80.30
2019-05-11T11:41:40.541Z,81.80
2019-05-11T11:44:20.702Z,82.70
2019-05-11T11:47:02.048Z,83.20
2019-05-11T11:49:42.023Z,83.70
2019-05-11T11:52:22.157Z,83.90
2019-05-11T11:55:02.717Z,83.50
2019-05-11T11:57:40.961Z,83.10
2019-05-11T12:00:21.309Z,83.30
2019-05-11T12:03:01.426Z,82.40
2019-05-11T12:05:41.573Z,81.90
2019-05-11T12:08:21.791Z,83.20
2019-05-11T12:11:01.905Z,82.50
2019-05-11T12:13:41.891Z,82.50
2019-05-11T12:16:21.898Z,82.80
2019-05-11T12:19:05.223Z,83.50
2019-05-11T12:21:44.613Z,80.90
2019-05-11T12:24:24.533Z,83.10
2019-05-11T12:27:04.841Z,79.30
2019-05-11T12:29:44.853Z,76.50
2019-05-11T12:35:18.115Z,75.90
2019-05-11T12:37:58.771Z,73.30
2019-05-11T12:40:38.841Z,72.70
2019-05-11T12:43:27.776Z,71.50
2019-05-11T12:46:08.078Z,71.30
2019-05-11T12:48:48.776Z,70.10
2019-05-11T12:54:33.995Z,71.50
2019-05-11T12:57:14.317Z,69.60
2019-05-11T12:59:54.266Z,69.50
2019-05-11T13:02:34.438Z,66.90
2019-05-11T13:05:15.311Z,67.10
2019-05-11T13:07:55.018Z,66.60
2019-05-11T13:10:34.988Z,66.50
2019-05-11T13:13:02.916Z,65.20
2019-05-11T13:15:49.954Z,65.50
2019-05-11T13:18:30.481Z,63.70
2019-05-11T13:21:10.497Z,64.40
2019-05-11T13:23:50.430Z,62.80
2019-05-11T13:26:30.731Z,65.00
2019-05-11T13:29:10.752Z,65.10
2019-05-11T13:31:51.121Z,66.90
2019-05-11T13:34:31.699Z,67.60
2019-05-11T13:37:11.538Z,66.30
2019-05-11T13:39:51.713Z,64.20
2019-05-11T13:42:32.222Z,63.50
2019-05-11T13:45:12.877Z,63.50
2019-05-11T13:47:55.998Z,64.90
2019-05-11T13:50:35.583Z,63.10
2019-05-11T13:53:15.546Z,61.10
2019-05-11T13:55:55.724Z,62.30
2019-05-11T13:58:37.989Z,62.00
2019-05-11T14:01:18.572Z,61.90
2019-05-11T14:03:59.130Z,60.30
2019-05-11T14:06:39.025Z,59.40
2019-05-11T14:09:19.173Z,59.90
2019-05-11T14:11:59.445Z,59.90
2019-05-11T14:14:39.552Z,60.50
2019-05-11T14:17:19.862Z,60.30
2019-05-11T14:19:59.683Z,61.30
2019-05-11T14:22:39.731Z,60.30
2019-05-11T14:25:19.770Z,60.30
2019-05-11T14:27:59.866Z,60.20
2019-05-11T14:30:39.887Z,59.90
2019-05-11T14:33:20.048Z,59.50
2019-05-11T14:36:01.865Z,58.30
2019-05-11T14:38:42.109Z,56.70
2019-05-11T14:41:22.261Z,57.80
2019-05-11T14:44:05.275Z,59.00
2019-05-11T14:46:47.836Z,59.30
2019-05-11T14:49:27.847Z,59.90
2019-05-11T14:52:08.429Z,59.20
2019-05-11T14:54:48.631Z,64.00
2019-05-11T14:57:28.445Z,68.80
2019-05-11T15:00:08.545Z,71.10
2019-05-11T15:02:49.790Z,74.40
2019-05-11T15:05:31.025Z,75.80
2019-05-11T15:08:11.158Z,76.30
2019-05-11T15:10:39.338Z,77.30
2019-05-11T15:13:08.018Z,80.10
2019-05-11T15:15:58.663Z,77.40
2019-05-11T15:18:42.159Z,77.80
2019-05-11T15:21:24.309Z,79.00
2019-05-11T15:24:05.005Z,79.60
2019-05-11T15:26:45.310Z,79.10
2019-05-11T15:29:25.844Z,79.00
2019-05-11T15:32:08.455Z,80.30
2019-05-11T15:34:48.895Z,78.60
2019-05-11T15:40:42.405Z,77.90
2019-05-11T15:43:22.564Z,76.70
2019-05-11T15:46:02.630Z,77.40
2019-05-11T15:48:55.811Z,80.50
2019-05-11T15:51:24.010Z,79.40
2019-05-11T15:54:07.435Z,79.40
2019-05-11T15:56:47.550Z,79.80
2019-05-11T15:59:27.995Z,80.80
2019-05-11T16:02:09.318Z,81.50
2019-05-11T16:04:38.153Z,77.50
2019-05-11T16:07:28.010Z,78.10
2019-05-11T16:10:08.051Z,75.70
2019-05-11T16:12:48.589Z,76.60
2019-05-11T16:15:29.095Z,77.50
2019-05-11T16:18:09.061Z,76.00
2019-05-11T16:20:50.297Z,76.40
2019-05-11T16:23:30.686Z,75.70
2019-05-11T16:26:11.217Z,76.70
2019-05-11T16:28:51.158Z,75.60
2019-05-11T16:31:31.636Z,75.10
2019-05-11T16:34:11.257Z,73.30
2019-05-11T16:36:39.150Z,75.90
2019-05-11T16:39:10.036Z,78.50
2019-05-11T16:41:57.826Z,79.70
2019-05-11T16:47:51.614Z,81.20
2019-05-11T16:50:31.655Z,82.80
2019-05-11T16:53:12.049Z,84.10
2019-05-11T16:55:53.292Z,83.20
2019-05-11T16:58:37.652Z,84.60
2019-05-11T17:01:15.701Z,85.50
2019-05-11T17:03:57.812Z,85.20
2019-05-11T17:06:38.705Z,85.70
2019-05-11T17:09:19.405Z,85.00
2019-05-11T17:11:59.503Z,85.60
2019-05-11T17:14:58.344Z,86.00
2019-05-11T17:17:37.834Z,86.30
2019-05-11T17:20:07.937Z,86.90
2019-05-11T17:22:54.966Z,86.70
2019-05-11T17:25:35.009Z,86.40
2019-05-11T17:28:15.377Z,86.50
2019-05-11T17:30:55.409Z,86.70
2019-05-11T17:33:23.048Z,86.10
2019-05-11T17:36:10.053Z,86.50
2019-05-11T17:38:49.953Z,86.40
2019-05-11T17:41:29.925Z,87.10
2019-05-11T17:44:09.884Z,86.80
2019-05-11T17:46:49.973Z,87.10
2019-05-11T17:49:30.049Z,87.40
2019-05-11T17:52:09.978Z,87.70
2019-05-11T17:54:50.035Z,87.70
2019-05-11T17:57:30.149Z,87.60
2019-05-11T18:00:10.097Z,87.40
2019-05-11T18:02:50.055Z,87.60
2019-05-11T18:05:30.493Z,87.40
2019-05-11T18:08:10.654Z,87.80
2019-05-11T18:10:50.594Z,87.00
2019-05-11T18:13:30.854Z,87.60
2019-05-11T18:16:11.306Z,87.70
2019-05-11T18:18:53.186Z,87.80
2019-05-11T18:21:33.343Z,87.60
2019-05-11T18:24:14.160Z,87.80
2019-05-11T18:26:53.703Z,87.10
2019-05-11T18:29:33.839Z,86.50
2019-05-11T18:32:01.485Z,83.50
2019-05-11T18:34:48.585Z,84.50
2019-05-11T18:37:38.692Z,84.20
2019-05-11T18:40:28.734Z,84.00
2019-05-11T18:43:18.658Z,84.30
2019-05-11T18:45:58.420Z,84.40
2019-05-11T18:48:38.758Z,83.80
2019-05-11T18:51:18.831Z,82.80
2019-05-11T18:53:58.799Z,82.40
2019-05-11T18:59:48.910Z,83.50
2019-05-11T19:02:38.474Z,83.80
2019-05-11T19:05:18.368Z,84.20
2019-05-11T19:07:58.564Z,84.20
2019-05-11T19:10:38.687Z,83.60
2019-05-11T19:13:18.554Z,84.60
2019-05-11T19:15:58.945Z,84.10
2019-05-11T19:18:40.937Z,83.30
2019-05-11T19:21:21.186Z,84.00
2019-05-11T19:24:01.386Z,83.80
2019-05-11T19:26:41.509Z,84.50
2019-05-11T19:29:21.582Z,83.10
2019-05-11T19:32:01.658Z,84.30
2019-05-11T19:34:41.840Z,84.50
2019-05-11T19:37:21.975Z,86.50
2019-05-11T19:40:01.942Z,85.40
2019-05-11T19:43:01.475Z,85.40
2019-05-11T19:45:42.428Z,86.00
2019-05-11T19:51:11.742Z,86.70
2019-05-11T19:53:57.882Z,86.30
2019-05-11T19:56:38.330Z,86.10
2019-05-11T19:59:08.414Z,86.00
2019-05-11T20:01:57.921Z,85.20
2019-05-11T20:04:48.138Z,84.40
2019-05-11T20:07:28.143Z,84.30
2019-05-11T20:09:55.789Z,84.90
2019-05-11T20:12:42.847Z,84.60
2019-05-11T20:15:23.037Z,84.40
2019-05-11T20:18:03.303Z,83.30
2019-05-11T20:20:43.610Z,83.10
2019-05-11T20:23:23.710Z,82.80
2019-05-11T20:26:03.815Z,82.70
2019-05-11T20:28:44.206Z,83.20
2019-05-11T20:31:24.288Z,84.30
2019-05-11T20:34:04.672Z,85.00
2019-05-11T20:36:44.764Z,84.50
2019-05-11T20:39:24.867Z,83.80
2019-05-11T20:42:05.577Z,84.30
2019-05-11T20:44:45.377Z,84.00
2019-05-11T20:47:25.344Z,85.80
2019-05-11T20:50:07.717Z,85.70
2019-05-11T20:52:48.173Z,87.10
2019-05-11T20:55:28.402Z,88.00
2019-05-11T20:58:08.716Z,86.40
2019-05-11T21:00:38.304Z,86.70
2019-05-11T21:03:27.710Z,88.60
2019-05-11T21:06:08.104Z,88.50
2019-05-11T21:08:48.950Z,90.00
2019-05-11T21:11:28.846Z,90.20
2019-05-11T21:14:08.827Z,90.10
2019-05-11T21:16:38.631Z,89.70
2019-05-11T21:19:25.410Z,90.50
2019-05-11T21:22:05.946Z,90.40
2019-05-11T21:24:49.427Z,90.40
2019-05-11T21:27:28.762Z,90.50
2019-05-11T21:30:09.541Z,90.30
2019-05-11T21:32:50.169Z,90.60
2019-05-11T21:35:30.433Z,90.80
2019-05-11T21:38:10.786Z,91.00
2019-05-11T21:40:50.761Z,91.10
2019-05-11T21:43:30.821Z,91.20
2019-05-11T21:46:11.262Z,91.70
2019-05-11T21:48:51.581Z,91.80
2019-05-11T21:51:19.361Z,91.40
2019-05-11T21:54:06.608Z,92.10
2019-05-11T21:56:53.586Z,92.40
2019-05-11T21:59:33.450Z,92.40
2019-05-11T22:02:13.685Z,91.90
2019-05-11T22:04:54.314Z,92.10
2019-05-11T22:07:34.321Z,92.50
2019-05-11T22:10:14.586Z,92.70
2019-05-11T22:12:54.805Z,93.00
2019-05-11T22:15:35.238Z,93.00
2019-05-11T22:18:02.869Z,93.00
2019-05-11T22:20:49.951Z,92.80
2019-05-11T22:23:38.598Z,92.90
2019-05-11T22:26:19.485Z,93.40
2019-05-11T22:28:59.950Z,93.70
2019-05-11T22:31:42.116Z,93.70
2019-05-11T22:34:22.314Z,94.10
2019-05-11T22:37:02.590Z,94.30
2019-05-11T22:39:42.545Z,94.40
2019-05-11T22:42:10.216Z,94.50
2019-05-11T22:44:38.647Z,94.70
2019-05-11T22:47:28.369Z,94.80
2019-05-11T22:50:09.433Z,95.20
2019-05-11T22:52:49.636Z,95.10
2019-05-11T22:55:29.736Z,94.90
2019-05-11T22:58:09.737Z,95.10
2019-05-11T23:00:49.864Z,95.00
2019-05-11T23:03:30.938Z,94.80
2019-05-11T23:06:11.362Z,94.20
2019-05-11T23:08:54.204Z,93.80
2019-05-11T23:11:20.673Z,93.00
2019-05-11T23:14:09.905Z,93.70
2019-05-11T23:16:49.910Z,93.60
2019-05-11T23:19:30.648Z,93.60
2019-05-11T23:22:10.776Z,93.20
2019-05-11T23:24:38.445Z,93.40
2019-05-11T23:27:25.469Z,93.20
2019-05-11T23:30:12.723Z,92.80
2019-05-11T23:32:52.557Z,92.40
2019-05-11T23:35:32.671Z,92.00
2019-05-11T23:38:12.616Z,92.30
2019-05-11T23:40:52.862Z,92.40
2019-05-11T23:43:33.146Z,92.70
2019-05-11T23:46:13.590Z,92.70
2019-05-11T23:48:53.854Z,92.70
2019-05-11T23:51:34.075Z,93.00
2019-05-11T23:54:14.226Z,93.00
2019-05-11T23:56:54.222Z,92.90
2019-05-11T23:59:34.089Z,92.80
